Aeroporto :







RITROVATECI SU...

 
LOGIN :

Iscrizione | Disclaimer

   EN    FR    IT 

 









Sommario :    VFR   VFR Marginale   IFR   IFR Intensivo   IFR Molto Intensivo
Visibilità : 
Base nubi : 
>= 8 km
>= 3000ft
5 / 8 km
1000 / 3000 ft
1500m / 5 km
500 / 1000 ft
800 / 1500m
200 / 500 ft
< 800m
< 200 ft
Simboli :   Temporali  Nebbia  Neve Forte  Precipitazioni Forti  Vento > 20 kt






- Altitudine del aeroporto : 121 ft
- Codice IATA : YBX


CYBX - Lourdes De Blanc Sablon

ULTIMO METAR :
  • 171300Z 09004KT 15SM BKN014 M08/M09 A2988 RMK SC7 SLP123

METARs OBSOLETI :
  • 171200Z 06005KT 15SM BKN013 M11/M12 A2988 RMK SC7 SLP123
  • 171123Z 06004KT 15SM BKN010 M11/M12 A2987 RMK SC6 SLP119
  • 171100Z VRB04KT 15SM FEW010 M13/M15 A2986 RMK SC1 SLP117
  • 171000Z CCA 04004KT 15SM SCT011 BKN017 M10/M11 A2987 RMK SC3SC2 SLP119

TAF TAF CYBX
Valido dal 17 a 08 ore il 17 a 20 ore UTC


170738Z 1708/1720 VRB03KT P6SM SCT020
TEMPO 1708/1712 BKN020
FM171200 24010KT P6SM BKN025
TEMPO 1712/1715 3SM -SN OVC012
FM171500 22012KT 3SM -SHSN OVC015
FM171700 24010KT 1SM -SHSN OVC007
BECMG 1718/1720 36010KT RMK NXT FCST BY 171400Z



MetMap, La meteo Aeronautica in un colpo d'occhio ! - Copyright ORBIFLY Dicembre 2007 - Disclaimer

ORBIFLY MET'MAP TEAM :

Programmazione e sviluppo : Alexandra Zaïnal
Concezione : Baudouin d'Aumeries
Aiuto per la programmazione : Marc-Olivier Méhu
Supporto tecnico e logistico : Manuel Goepfert
Aiuto per la traduzione : Arnaldo La Scala

Contatto : metmap@orbifly.com




FONTI E CREDITI :

   NOAA